sensor_id;sensor_type;location;lat;lon;timestamp;temperature;humidity
79049;DHT22;68680;50.764;6.120;2023-09-12T00:00:49;19.90;99.90
79049;DHT22;68680;50.764;6.120;2023-09-12T00:03:19;19.90;99.90
79049;DHT22;68680;50.764;6.120;2023-09-12T00:05:51;19.90;99.90
79049;DHT22;68680;50.764;6.120;2023-09-12T00:08:16;19.80;99.90
79049;DHT22;68680;50.764;6.120;2023-09-12T00:10:43;19.60;99.90
79049;DHT22;68680;50.764;6.120;2023-09-12T00:13:09;19.60;99.90
79049;DHT22;68680;50.764;6.120;2023-09-12T00:15:34;19.60;99.90
79049;DHT22;68680;50.764;6.120;2023-09-12T00:18:00;19.70;99.90
79049;DHT22;68680;50.764;6.120;2023-09-12T00:20:25;19.70;99.90
79049;DHT22;68680;50.764;6.120;2023-09-12T00:22:51;19.70;99.90
79049;DHT22;68680;50.764;6.120;2023-09-12T00:25:17;19.70;99.90
79049;DHT22;68680;50.764;6.120;2023-09-12T00:27:43;19.70;99.90
79049;DHT22;68680;50.764;6.120;2023-09-12T00:30:10;19.60;99.90
79049;DHT22;68680;50.764;6.120;2023-09-12T00:32:36;19.60;99.90
79049;DHT22;68680;50.764;6.120;2023-09-12T00:35:01;19.50;99.90
79049;DHT22;68680;50.764;6.120;2023-09-12T00:37:27;19.50;99.90
79049;DHT22;68680;50.764;6.120;2023-09-12T00:39:53;19.50;99.90
79049;DHT22;68680;50.764;6.120;2023-09-12T00:42:19;19.50;99.90
79049;DHT22;68680;50.764;6.120;2023-09-12T00:44:46;19.50;99.90
79049;DHT22;68680;50.764;6.120;2023-09-12T00:47:11;19.50;99.90
79049;DHT22;68680;50.764;6.120;2023-09-12T00:49:38;19.50;99.90
79049;DHT22;68680;50.764;6.120;2023-09-12T00:52:05;19.40;99.90
79049;DHT22;68680;50.764;6.120;2023-09-12T00:54:31;19.40;99.90
79049;DHT22;68680;50.764;6.120;2023-09-12T00:56:57;19.40;99.90
79049;DHT22;68680;50.764;6.120;2023-09-12T00:59:23;19.40;99.90
79049;DHT22;68680;50.764;6.120;2023-09-12T01:01:50;19.30;99.90
79049;DHT22;68680;50.764;6.120;2023-09-12T01:04:16;19.30;99.90
79049;DHT22;68680;50.764;6.120;2023-09-12T01:06:42;19.20;99.90
79049;DHT22;68680;50.764;6.120;2023-09-12T01:09:08;19.20;99.90
79049;DHT22;68680;50.764;6.120;2023-09-12T01:11:34;19.10;99.90
79049;DHT22;68680;50.764;6.120;2023-09-12T01:14:00;19.10;99.90
79049;DHT22;68680;50.764;6.120;2023-09-12T01:16:25;19.10;99.90
79049;DHT22;68680;50.764;6.120;2023-09-12T01:18:52;19.00;99.90
79049;DHT22;68680;50.764;6.120;2023-09-12T01:21:44;19.00;99.90
79049;DHT22;68680;50.764;6.120;2023-09-12T01:24:45;18.90;99.90
79049;DHT22;68680;50.764;6.120;2023-09-12T01:27:25;18.90;99.90
79049;DHT22;68680;50.764;6.120;2023-09-12T01:29:56;18.90;99.90
79049;DHT22;68680;50.764;6.120;2023-09-12T01:32:21;19.00;99.90
79049;DHT22;68680;50.764;6.120;2023-09-12T01:34:47;19.00;99.90
79049;DHT22;68680;50.764;6.120;2023-09-12T01:37:13;19.10;99.90
79049;DHT22;68680;50.764;6.120;2023-09-12T01:39:39;19.10;99.90
79049;DHT22;68680;50.764;6.120;2023-09-12T01:42:05;19.10;99.90
79049;DHT22;68680;50.764;6.120;2023-09-12T01:44:34;19.00;99.90
79049;DHT22;68680;50.764;6.120;2023-09-12T01:47:03;19.00;99.90
79049;DHT22;68680;50.764;6.120;2023-09-12T01:49:30;18.90;99.90
79049;DHT22;68680;50.764;6.120;2023-09-12T01:51:57;18.80;99.90
79049;DHT22;68680;50.764;6.120;2023-09-12T01:54:23;18.70;99.90
79049;DHT22;68680;50.764;6.120;2023-09-12T01:56:49;18.60;99.90
79049;DHT22;68680;50.764;6.120;2023-09-12T01:59:15;18.60;99.90
79049;DHT22;68680;50.764;6.120;2023-09-12T02:01:42;18.60;99.90
79049;DHT22;68680;50.764;6.120;2023-09-12T02:04:08;18.60;99.90
79049;DHT22;68680;50.764;6.120;2023-09-12T02:06:34;18.60;99.90
79049;DHT22;68680;50.764;6.120;2023-09-12T02:08:59;18.60;99.90
79049;DHT22;68680;50.764;6.120;2023-09-12T02:11:26;18.60;99.90
79049;DHT22;68680;50.764;6.120;2023-09-12T02:13:51;18.60;99.90
79049;DHT22;68680;50.764;6.120;2023-09-12T02:16:17;18.50;99.90
79049;DHT22;68680;50.764;6.120;2023-09-12T02:18:44;18.50;99.90
79049;DHT22;68680;50.764;6.120;2023-09-12T02:21:10;18.50;99.90
79049;DHT22;68680;50.764;6.120;2023-09-12T02:23:35;18.50;99.90
79049;DHT22;68680;50.764;6.120;2023-09-12T02:26:01;18.50;99.90
79049;DHT22;68680;50.764;6.120;2023-09-12T02:28:26;18.50;99.90
79049;DHT22;68680;50.764;6.120;2023-09-12T02:30:52;18.40;99.90
79049;DHT22;68680;50.764;6.120;2023-09-12T02:33:18;18.40;99.90
79049;DHT22;68680;50.764;6.120;2023-09-12T02:35:44;18.40;99.90
79049;DHT22;68680;50.764;6.120;2023-09-12T02:38:10;18.40;99.90
79049;DHT22;68680;50.764;6.120;2023-09-12T02:40:36;18.40;99.90
79049;DHT22;68680;50.764;6.120;2023-09-12T02:43:01;18.20;99.90
79049;DHT22;68680;50.764;6.120;2023-09-12T02:45:27;18.30;99.90
79049;DHT22;68680;50.764;6.120;2023-09-12T02:47:53;18.20;99.90
79049;DHT22;68680;50.764;6.120;2023-09-12T02:50:18;18.20;99.90
79049;DHT22;68680;50.764;6.120;2023-09-12T02:52:45;18.30;99.90
79049;DHT22;68680;50.764;6.120;2023-09-12T02:55:11;18.20;99.90
79049;DHT22;68680;50.764;6.120;2023-09-12T02:57:36;18.20;99.90
79049;DHT22;68680;50.764;6.120;2023-09-12T03:00:02;18.10;99.90
79049;DHT22;68680;50.764;6.120;2023-09-12T03:02:28;18.00;99.90
79049;DHT22;68680;50.764;6.120;2023-09-12T03:04:54;18.00;99.90
79049;DHT22;68680;50.764;6.120;2023-09-12T03:07:19;18.10;99.90
79049;DHT22;68680;50.764;6.120;2023-09-12T03:09:49;18.10;99.90
79049;DHT22;68680;50.764;6.120;2023-09-12T03:12:14;18.10;99.90
79049;DHT22;68680;50.764;6.120;2023-09-12T03:14:40;18.10;99.90
79049;DHT22;68680;50.764;6.120;2023-09-12T03:17:06;18.10;99.90
79049;DHT22;68680;50.764;6.120;2023-09-12T03:19:31;18.10;99.90
79049;DHT22;68680;50.764;6.120;2023-09-12T03:21:57;18.10;99.90
79049;DHT22;68680;50.764;6.120;2023-09-12T03:24:23;18.20;99.90
79049;DHT22;68680;50.764;6.120;2023-09-12T03:26:50;18.20;99.90
79049;DHT22;68680;50.764;6.120;2023-09-12T03:29:15;18.20;99.90
79049;DHT22;68680;50.764;6.120;2023-09-12T03:31:41;18.30;99.90
79049;DHT22;68680;50.764;6.120;2023-09-12T03:34:06;18.30;99.90
79049;DHT22;68680;50.764;6.120;2023-09-12T03:36:32;18.30;99.90
79049;DHT22;68680;50.764;6.120;2023-09-12T03:38:58;18.30;99.90
79049;DHT22;68680;50.764;6.120;2023-09-12T03:41:23;18.20;99.90
79049;DHT22;68680;50.764;6.120;2023-09-12T03:43:50;18.20;99.90
79049;DHT22;68680;50.764;6.120;2023-09-12T03:46:16;18.20;99.90
79049;DHT22;68680;50.764;6.120;2023-09-12T03:48:41;18.20;99.90
79049;DHT22;68680;50.764;6.120;2023-09-12T03:51:07;18.20;99.90
79049;DHT22;68680;50.764;6.120;2023-09-12T03:53:32;18.20;99.90
79049;DHT22;68680;50.764;6.120;2023-09-12T03:55:58;18.20;99.90
79049;DHT22;68680;50.764;6.120;2023-09-12T03:58:24;18.20;99.90
79049;DHT22;68680;50.764;6.120;2023-09-12T04:00:51;18.20;99.90
79049;DHT22;68680;50.764;6.120;2023-09-12T04:03:16;18.20;99.90
79049;DHT22;68680;50.764;6.120;2023-09-12T04:05:42;18.20;99.90
79049;DHT22;68680;50.764;6.120;2023-09-12T04:08:07;18.20;99.90
79049;DHT22;68680;50.764;6.120;2023-09-12T04:10:33;18.10;99.90
79049;DHT22;68680;50.764;6.120;2023-09-12T04:12:59;18.10;99.90
79049;DHT22;68680;50.764;6.120;2023-09-12T04:15:24;18.00;99.90
79049;DHT22;68680;50.764;6.120;2023-09-12T04:17:51;18.10;99.90
79049;DHT22;68680;50.764;6.120;2023-09-12T04:20:17;18.10;99.90
79049;DHT22;68680;50.764;6.120;2023-09-12T04:22:43;18.20;99.90
79049;DHT22;68680;50.764;6.120;2023-09-12T04:25:08;18.10;99.90
79049;DHT22;68680;50.764;6.120;2023-09-12T04:27:34;18.10;99.90
79049;DHT22;68680;50.764;6.120;2023-09-12T04:29:59;18.20;99.90
79049;DHT22;68680;50.764;6.120;2023-09-12T04:32:25;18.20;99.90
79049;DHT22;68680;50.764;6.120;2023-09-12T04:34:52;18.20;99.90
79049;DHT22;68680;50.764;6.120;2023-09-12T04:37:18;18.20;99.90
79049;DHT22;68680;50.764;6.120;2023-09-12T04:39:44;18.20;99.90
79049;DHT22;68680;50.764;6.120;2023-09-12T04:42:09;18.20;99.90
79049;DHT22;68680;50.764;6.120;2023-09-12T04:44:35;18.20;99.90
79049;DHT22;68680;50.764;6.120;2023-09-12T04:47:01;18.20;99.90
79049;DHT22;68680;50.764;6.120;2023-09-12T04:49:27;18.10;99.90
79049;DHT22;68680;50.764;6.120;2023-09-12T04:51:54;18.00;99.90
79049;DHT22;68680;50.764;6.120;2023-09-12T04:54:20;17.90;99.90
79049;DHT22;68680;50.764;6.120;2023-09-12T04:56:45;17.70;99.90
79049;DHT22;68680;50.764;6.120;2023-09-12T04:59:11;17.70;99.90
79049;DHT22;68680;50.764;6.120;2023-09-12T05:01:36;17.70;99.90
79049;DHT22;68680;50.764;6.120;2023-09-12T05:04:02;17.70;99.90
79049;DHT22;68680;50.764;6.120;2023-09-12T05:06:28;17.80;99.90
79049;DHT22;68680;50.764;6.120;2023-09-12T05:08:55;17.90;99.90
79049;DHT22;68680;50.764;6.120;2023-09-12T05:11:22;17.90;99.90
79049;DHT22;68680;50.764;6.120;2023-09-12T05:13:47;17.90;99.90
79049;DHT22;68680;50.764;6.120;2023-09-12T05:16:13;18.00;99.90
79049;DHT22;68680;50.764;6.120;2023-09-12T05:18:39;18.00;99.90
79049;DHT22;68680;50.764;6.120;2023-09-12T05:21:04;18.00;99.90
79049;DHT22;68680;50.764;6.120;2023-09-12T05:23:30;18.00;99.90
79049;DHT22;68680;50.764;6.120;2023-09-12T05:25:57;17.90;99.90
79049;DHT22;68680;50.764;6.120;2023-09-12T05:28:23;17.90;99.90
79049;DHT22;68680;50.764;6.120;2023-09-12T05:30:48;17.90;99.90
79049;DHT22;68680;50.764;6.120;2023-09-12T05:33:14;17.90;99.90
79049;DHT22;68680;50.764;6.120;2023-09-12T05:35:40;17.90;99.90
79049;DHT22;68680;50.764;6.120;2023-09-12T05:38:05;17.90;99.90
79049;DHT22;68680;50.764;6.120;2023-09-12T05:40:31;17.90;99.90
79049;DHT22;68680;50.764;6.120;2023-09-12T05:42:58;18.00;99.90
79049;DHT22;68680;50.764;6.120;2023-09-12T05:45:23;18.00;99.90
79049;DHT22;68680;50.764;6.120;2023-09-12T05:47:49;18.10;99.90
79049;DHT22;68680;50.764;6.120;2023-09-12T05:50:15;18.10;99.90
79049;DHT22;68680;50.764;6.120;2023-09-12T05:52:40;18.10;99.90
79049;DHT22;68680;50.764;6.120;2023-09-12T05:55:06;18.10;99.90
79049;DHT22;68680;50.764;6.120;2023-09-12T05:57:32;18.10;99.90
79049;DHT22;68680;50.764;6.120;2023-09-12T05:59:59;18.20;99.90
79049;DHT22;68680;50.764;6.120;2023-09-12T06:02:25;18.20;99.90
79049;DHT22;68680;50.764;6.120;2023-09-12T06:04:51;18.30;99.90
79049;DHT22;68680;50.764;6.120;2023-09-12T06:07:16;18.30;99.90
79049;DHT22;68680;50.764;6.120;2023-09-12T06:09:42;18.30;99.90
79049;DHT22;68680;50.764;6.120;2023-09-12T06:12:08;18.40;99.90
79049;DHT22;68680;50.764;6.120;2023-09-12T06:14:33;18.40;99.90
79049;DHT22;68680;50.764;6.120;2023-09-12T06:17:00;18.40;99.90
79049;DHT22;68680;50.764;6.120;2023-09-12T06:19:26;18.40;99.90
79049;DHT22;68680;50.764;6.120;2023-09-12T06:21:51;18.40;99.90
79049;DHT22;68680;50.764;6.120;2023-09-12T06:24:19;18.40;99.90
79049;DHT22;68680;50.764;6.120;2023-09-12T06:26:45;18.50;99.90
79049;DHT22;68680;50.764;6.120;2023-09-12T06:29:11;18.50;99.90
79049;DHT22;68680;50.764;6.120;2023-09-12T06:31:36;18.50;99.90
79049;DHT22;68680;50.764;6.120;2023-09-12T06:34:03;18.50;99.90
79049;DHT22;68680;50.764;6.120;2023-09-12T06:36:29;18.60;99.90
79049;DHT22;68680;50.764;6.120;2023-09-12T06:38:55;18.60;99.90
79049;DHT22;68680;50.764;6.120;2023-09-12T06:41:21;18.60;99.90
79049;DHT22;68680;50.764;6.120;2023-09-12T06:43:46;18.50;99.90
79049;DHT22;68680;50.764;6.120;2023-09-12T06:46:12;18.50;99.90
79049;DHT22;68680;50.764;6.120;2023-09-12T06:48:38;18.60;99.90
79049;DHT22;68680;50.764;6.120;2023-09-12T06:51:08;18.60;99.90
79049;DHT22;68680;50.764;6.120;2023-09-12T06:53:34;18.60;99.90
79049;DHT22;68680;50.764;6.120;2023-09-12T06:55:59;18.70;99.90
79049;DHT22;68680;50.764;6.120;2023-09-12T06:58:25;18.70;99.90
79049;DHT22;68680;50.764;6.120;2023-09-12T07:00:51;18.70;99.90
79049;DHT22;68680;50.764;6.120;2023-09-12T07:03:16;18.70;99.90
79049;DHT22;68680;50.764;6.120;2023-09-12T07:05:42;18.70;99.90
79049;DHT22;68680;50.764;6.120;2023-09-12T07:08:09;18.80;99.90
79049;DHT22;68680;50.764;6.120;2023-09-12T07:10:35;18.90;99.90
79049;DHT22;68680;50.764;6.120;2023-09-12T07:13:01;18.80;99.90
79049;DHT22;68680;50.764;6.120;2023-09-12T07:15:26;18.80;99.90
79049;DHT22;68680;50.764;6.120;2023-09-12T07:17:52;18.90;99.90
79049;DHT22;68680;50.764;6.120;2023-09-12T07:20:17;18.90;99.90
79049;DHT22;68680;50.764;6.120;2023-09-12T07:22:43;18.90;99.90
79049;DHT22;68680;50.764;6.120;2023-09-12T07:25:10;19.00;99.90
79049;DHT22;68680;50.764;6.120;2023-09-12T07:27:36;19.00;99.90
79049;DHT22;68680;50.764;6.120;2023-09-12T07:30:01;19.00;99.90
79049;DHT22;68680;50.764;6.120;2023-09-12T07:32:27;19.10;99.90
79049;DHT22;68680;50.764;6.120;2023-09-12T07:34:53;19.10;99.90
79049;DHT22;68680;50.764;6.120;2023-09-12T07:37:18;19.10;99.90
79049;DHT22;68680;50.764;6.120;2023-09-12T07:39:44;19.20;99.90
79049;DHT22;68680;50.764;6.120;2023-09-12T07:42:11;19.30;99.90
79049;DHT22;68680;50.764;6.120;2023-09-12T07:44:36;19.30;99.90
79049;DHT22;68680;50.764;6.120;2023-09-12T07:47:02;19.40;99.90
79049;DHT22;68680;50.764;6.120;2023-09-12T07:49:28;19.40;99.90
79049;DHT22;68680;50.764;6.120;2023-09-12T07:51:53;19.60;99.90
79049;DHT22;68680;50.764;6.120;2023-09-12T07:54:19;19.60;99.90
79049;DHT22;68680;50.764;6.120;2023-09-12T07:56:44;19.70;99.90
79049;DHT22;68680;50.764;6.120;2023-09-12T07:59:11;19.90;99.90
79049;DHT22;68680;50.764;6.120;2023-09-12T08:01:37;19.90;99.90
79049;DHT22;68680;50.764;6.120;2023-09-12T08:04:03;19.90;99.90
79049;DHT22;68680;50.764;6.120;2023-09-12T08:06:29;19.90;99.90
79049;DHT22;68680;50.764;6.120;2023-09-12T08:08:54;19.90;99.90
79049;DHT22;68680;50.764;6.120;2023-09-12T08:11:20;19.90;99.90
79049;DHT22;68680;50.764;6.120;2023-09-12T08:13:48;19.90;99.90
79049;DHT22;68680;50.764;6.120;2023-09-12T08:16:16;19.90;99.90
79049;DHT22;68680;50.764;6.120;2023-09-12T08:18:41;19.90;99.90
79049;DHT22;68680;50.764;6.120;2023-09-12T08:21:07;20.00;99.90
79049;DHT22;68680;50.764;6.120;2023-09-12T08:23:33;20.10;99.90
79049;DHT22;68680;50.764;6.120;2023-09-12T08:25:59;20.20;99.90
79049;DHT22;68680;50.764;6.120;2023-09-12T08:28:25;20.20;99.90
79049;DHT22;68680;50.764;6.120;2023-09-12T08:30:51;20.20;99.90
79049;DHT22;68680;50.764;6.120;2023-09-12T08:33:18;20.20;99.90
79049;DHT22;68680;50.764;6.120;2023-09-12T08:35:43;20.10;99.90
79049;DHT22;68680;50.764;6.120;2023-09-12T08:38:09;20.00;99.90
79049;DHT22;68680;50.764;6.120;2023-09-12T08:40:35;20.00;99.90
79049;DHT22;68680;50.764;6.120;2023-09-12T08:43:00;20.00;99.90
79049;DHT22;68680;50.764;6.120;2023-09-12T08:45:26;20.10;99.90
79049;DHT22;68680;50.764;6.120;2023-09-12T08:47:53;20.20;99.90
79049;DHT22;68680;50.764;6.120;2023-09-12T08:50:21;20.20;99.90
79049;DHT22;68680;50.764;6.120;2023-09-12T08:52:47;20.10;99.90
79049;DHT22;68680;50.764;6.120;2023-09-12T08:55:13;20.20;99.90
79049;DHT22;68680;50.764;6.120;2023-09-12T08:57:41;20.20;99.90
79049;DHT22;68680;50.764;6.120;2023-09-12T09:00:08;20.30;99.90
79049;DHT22;68680;50.764;6.120;2023-09-12T09:02:35;20.40;99.90
79049;DHT22;68680;50.764;6.120;2023-09-12T09:05:02;20.50;99.90
79049;DHT22;68680;50.764;6.120;2023-09-12T09:07:29;20.70;99.90
79049;DHT22;68680;50.764;6.120;2023-09-12T09:09:56;20.70;99.90
79049;DHT22;68680;50.764;6.120;2023-09-12T09:12:21;20.80;99.90
79049;DHT22;68680;50.764;6.120;2023-09-12T09:14:47;20.70;99.90
79049;DHT22;68680;50.764;6.120;2023-09-12T09:17:12;20.80;99.90
79049;DHT22;68680;50.764;6.120;2023-09-12T09:19:44;20.80;99.90
79049;DHT22;68680;50.764;6.120;2023-09-12T09:22:09;20.90;99.90
79049;DHT22;68680;50.764;6.120;2023-09-12T09:24:37;20.90;99.90
79049;DHT22;68680;50.764;6.120;2023-09-12T09:27:03;21.00;99.90
79049;DHT22;68680;50.764;6.120;2023-09-12T09:29:28;21.10;99.90
79049;DHT22;68680;50.764;6.120;2023-09-12T09:31:54;21.20;99.90
79049;DHT22;68680;50.764;6.120;2023-09-12T09:34:21;21.30;99.90
79049;DHT22;68680;50.764;6.120;2023-09-12T09:36:48;21.30;99.90
79049;DHT22;68680;50.764;6.120;2023-09-12T09:39:14;21.40;99.90
79049;DHT22;68680;50.764;6.120;2023-09-12T09:41:42;21.40;99.90
79049;DHT22;68680;50.764;6.120;2023-09-12T09:44:12;21.40;99.90
79049;DHT22;68680;50.764;6.120;2023-09-12T09:46:38;21.30;99.90
79049;DHT22;68680;50.764;6.120;2023-09-12T09:49:04;21.30;99.90
79049;DHT22;68680;50.764;6.120;2023-09-12T09:51:30;21.40;99.90
79049;DHT22;68680;50.764;6.120;2023-09-12T09:53:56;21.50;99.90
79049;DHT22;68680;50.764;6.120;2023-09-12T09:56:21;21.50;99.90
79049;DHT22;68680;50.764;6.120;2023-09-12T09:58:49;21.50;99.90
79049;DHT22;68680;50.764;6.120;2023-09-12T10:01:18;21.60;99.90
79049;DHT22;68680;50.764;6.120;2023-09-12T10:03:45;21.70;99.90
79049;DHT22;68680;50.764;6.120;2023-09-12T10:06:11;21.90;99.90
79049;DHT22;68680;50.764;6.120;2023-09-12T10:08:39;22.10;99.90
79049;DHT22;68680;50.764;6.120;2023-09-12T10:11:06;22.20;99.90
79049;DHT22;68680;50.764;6.120;2023-09-12T10:13:33;22.30;99.90
79049;DHT22;68680;50.764;6.120;2023-09-12T10:16:02;22.20;99.90
79049;DHT22;68680;50.764;6.120;2023-09-12T10:18:29;22.30;99.90
79049;DHT22;68680;50.764;6.120;2023-09-12T10:21:02;22.30;99.90
79049;DHT22;68680;50.764;6.120;2023-09-12T10:23:35;22.30;99.90
79049;DHT22;68680;50.764;6.120;2023-09-12T10:26:03;22.20;99.90
79049;DHT22;68680;50.764;6.120;2023-09-12T10:28:28;22.20;99.90
79049;DHT22;68680;50.764;6.120;2023-09-12T10:30:57;22.20;99.90
79049;DHT22;68680;50.764;6.120;2023-09-12T10:33:26;22.10;99.90
79049;DHT22;68680;50.764;6.120;2023-09-12T10:35:53;22.10;99.90
79049;DHT22;68680;50.764;6.120;2023-09-12T10:38:21;22.30;99.90
79049;DHT22;68680;50.764;6.120;2023-09-12T10:40:48;22.30;99.90
79049;DHT22;68680;50.764;6.120;2023-09-12T10:43:15;22.40;99.90
79049;DHT22;68680;50.764;6.120;2023-09-12T10:45:41;22.40;99.90
79049;DHT22;68680;50.764;6.120;2023-09-12T10:48:09;22.40;99.90
79049;DHT22;68680;50.764;6.120;2023-09-12T10:50:37;22.50;99.90
79049;DHT22;68680;50.764;6.120;2023-09-12T10:53:11;22.50;99.90
79049;DHT22;68680;50.764;6.120;2023-09-12T10:55:37;22.50;99.90
79049;DHT22;68680;50.764;6.120;2023-09-12T10:58:04;22.50;99.90
79049;DHT22;68680;50.764;6.120;2023-09-12T11:00:30;22.60;99.90
79049;DHT22;68680;50.764;6.120;2023-09-12T11:02:55;22.70;99.90
79049;DHT22;68680;50.764;6.120;2023-09-12T11:05:50;22.90;99.90
79049;DHT22;68680;50.764;6.120;2023-09-12T11:08:16;23.00;99.90
79049;DHT22;68680;50.764;6.120;2023-09-12T11:10:42;23.00;99.90
79049;DHT22;68680;50.764;6.120;2023-09-12T11:13:17;23.10;99.90
79049;DHT22;68680;50.764;6.120;2023-09-12T11:16:10;23.20;99.90
79049;DHT22;68680;50.764;6.120;2023-09-12T11:19:14;23.30;99.90
79049;DHT22;68680;50.764;6.120;2023-09-12T11:21:41;23.30;99.90
79049;DHT22;68680;50.764;6.120;2023-09-12T11:24:07;23.50;99.80
79049;DHT22;68680;50.764;6.120;2023-09-12T11:26:33;23.40;98.90
79049;DHT22;68680;50.764;6.120;2023-09-12T11:29:10;23.40;99.30
79049;DHT22;68680;50.764;6.120;2023-09-12T11:31:36;23.40;99.40
79049;DHT22;68680;50.764;6.120;2023-09-12T11:34:02;23.40;99.70
79049;DHT22;68680;50.764;6.120;2023-09-12T11:36:27;23.40;99.10
79049;DHT22;68680;50.764;6.120;2023-09-12T11:39:02;23.50;98.70
79049;DHT22;68680;50.764;6.120;2023-09-12T11:41:40;23.50;97.80
79049;DHT22;68680;50.764;6.120;2023-09-12T11:44:06;23.70;97.10
79049;DHT22;68680;50.764;6.120;2023-09-12T11:46:32;23.80;97.30
79049;DHT22;68680;50.764;6.120;2023-09-12T11:49:01;23.90;96.30
79049;DHT22;68680;50.764;6.120;2023-09-12T11:51:27;23.90;95.80
79049;DHT22;68680;50.764;6.120;2023-09-12T11:53:54;24.00;95.60
79049;DHT22;68680;50.764;6.120;2023-09-12T11:56:19;24.00;96.60
79049;DHT22;68680;50.764;6.120;2023-09-12T11:58:45;23.90;96.40
79049;DHT22;68680;50.764;6.120;2023-09-12T12:01:12;23.80;96.10
79049;DHT22;68680;50.764;6.120;2023-09-12T12:03:38;23.80;97.10
79049;DHT22;68680;50.764;6.120;2023-09-12T12:06:04;24.00;95.70
79049;DHT22;68680;50.764;6.120;2023-09-12T12:08:31;24.10;94.70
79049;DHT22;68680;50.764;6.120;2023-09-12T12:10:58;24.20;95.40
79049;DHT22;68680;50.764;6.120;2023-09-12T12:13:24;24.20;94.20
79049;DHT22;68680;50.764;6.120;2023-09-12T12:15:50;24.20;94.40
79049;DHT22;68680;50.764;6.120;2023-09-12T12:18:16;24.10;95.20
79049;DHT22;68680;50.764;6.120;2023-09-12T12:20:42;24.00;95.10
79049;DHT22;68680;50.764;6.120;2023-09-12T12:23:07;24.10;94.80
79049;DHT22;68680;50.764;6.120;2023-09-12T12:25:34;24.00;94.50
79049;DHT22;68680;50.764;6.120;2023-09-12T12:28:01;23.90;94.80
79049;DHT22;68680;50.764;6.120;2023-09-12T12:30:30;23.80;94.50
79049;DHT22;68680;50.764;6.120;2023-09-12T12:32:56;23.80;94.80
79049;DHT22;68680;50.764;6.120;2023-09-12T12:35:23;23.90;94.80
79049;DHT22;68680;50.764;6.120;2023-09-12T12:37:49;24.10;94.30
79049;DHT22;68680;50.764;6.120;2023-09-12T12:40:16;24.30;93.90
79049;DHT22;68680;50.764;6.120;2023-09-12T12:42:42;24.50;93.60
79049;DHT22;68680;50.764;6.120;2023-09-12T12:45:12;24.70;92.80
79049;DHT22;68680;50.764;6.120;2023-09-12T12:47:38;24.90;92.10
79049;DHT22;68680;50.764;6.120;2023-09-12T12:50:07;25.00;91.40
79049;DHT22;68680;50.764;6.120;2023-09-12T12:52:34;25.10;90.60
79049;DHT22;68680;50.764;6.120;2023-09-12T12:55:04;25.10;90.60
79049;DHT22;68680;50.764;6.120;2023-09-12T12:57:29;25.00;90.60
79049;DHT22;68680;50.764;6.120;2023-09-12T12:59:55;24.90;90.10
79049;DHT22;68680;50.764;6.120;2023-09-12T13:02:22;24.90;90.90
79049;DHT22;68680;50.764;6.120;2023-09-12T13:04:48;24.80;91.10
79049;DHT22;68680;50.764;6.120;2023-09-12T13:07:13;24.70;89.30
79049;DHT22;68680;50.764;6.120;2023-09-12T13:09:40;24.80;89.60
79049;DHT22;68680;50.764;6.120;2023-09-12T13:12:06;25.00;90.10
79049;DHT22;68680;50.764;6.120;2023-09-12T13:14:32;25.00;89.40
79049;DHT22;68680;50.764;6.120;2023-09-12T13:16:58;25.10;87.70
79049;DHT22;68680;50.764;6.120;2023-09-12T13:19:25;25.30;87.20
79049;DHT22;68680;50.764;6.120;2023-09-12T13:21:50;25.80;86.70
79049;DHT22;68680;50.764;6.120;2023-09-12T13:24:16;25.90;85.30
79049;DHT22;68680;50.764;6.120;2023-09-12T13:26:42;25.80;84.60
79049;DHT22;68680;50.764;6.120;2023-09-12T13:29:07;25.70;84.70
79049;DHT22;68680;50.764;6.120;2023-09-12T13:31:33;25.80;84.70
79049;DHT22;68680;50.764;6.120;2023-09-12T13:33:58;25.70;83.40
79049;DHT22;68680;50.764;6.120;2023-09-12T13:36:25;25.50;86.40
79049;DHT22;68680;50.764;6.120;2023-09-12T13:38:51;25.40;87.00
79049;DHT22;68680;50.764;6.120;2023-09-12T13:41:17;25.60;85.50
79049;DHT22;68680;50.764;6.120;2023-09-12T13:43:42;26.70;79.60
79049;DHT22;68680;50.764;6.120;2023-09-12T13:46:08;27.60;76.20
79049;DHT22;68680;50.764;6.120;2023-09-12T13:48:33;28.00;73.00
79049;DHT22;68680;50.764;6.120;2023-09-12T13:50:59;28.10;73.10
79049;DHT22;68680;50.764;6.120;2023-09-12T13:53:26;28.10;70.40
79049;DHT22;68680;50.764;6.120;2023-09-12T13:55:51;28.70;70.30
79049;DHT22;68680;50.764;6.120;2023-09-12T13:58:17;28.10;69.60
79049;DHT22;68680;50.764;6.120;2023-09-12T14:00:42;27.30;72.40
79049;DHT22;68680;50.764;6.120;2023-09-12T14:03:08;26.60;74.10
79049;DHT22;68680;50.764;6.120;2023-09-12T14:05:34;26.10;75.10
79049;DHT22;68680;50.764;6.120;2023-09-12T14:07:59;25.90;76.00
79049;DHT22;68680;50.764;6.120;2023-09-12T14:10:26;25.60;77.30
79049;DHT22;68680;50.764;6.120;2023-09-12T14:12:52;25.40;78.30
79049;DHT22;68680;50.764;6.120;2023-09-12T14:15:17;25.30;79.20
79049;DHT22;68680;50.764;6.120;2023-09-12T14:17:43;25.40;79.90
79049;DHT22;68680;50.764;6.120;2023-09-12T14:20:09;25.50;80.20
79049;DHT22;68680;50.764;6.120;2023-09-12T14:22:35;25.40;81.50
79049;DHT22;68680;50.764;6.120;2023-09-12T14:25:01;25.30;81.00
79049;DHT22;68680;50.764;6.120;2023-09-12T14:27:28;25.20;80.60
79049;DHT22;68680;50.764;6.120;2023-09-12T14:29:54;25.00;80.80
79049;DHT22;68680;50.764;6.120;2023-09-12T14:32:19;25.00;81.00
79049;DHT22;68680;50.764;6.120;2023-09-12T14:34:45;25.30;80.60
79049;DHT22;68680;50.764;6.120;2023-09-12T14:37:10;25.40;81.10
79049;DHT22;68680;50.764;6.120;2023-09-12T14:39:36;25.40;80.30
79049;DHT22;68680;50.764;6.120;2023-09-12T14:42:02;25.60;79.30
79049;DHT22;68680;50.764;6.120;2023-09-12T14:44:28;25.50;78.90
79049;DHT22;68680;50.764;6.120;2023-09-12T14:46:54;25.40;79.60
79049;DHT22;68680;50.764;6.120;2023-09-12T14:49:20;25.30;80.00
79049;DHT22;68680;50.764;6.120;2023-09-12T14:51:45;25.10;81.10
79049;DHT22;68680;50.764;6.120;2023-09-12T14:54:11;25.10;81.20
79049;DHT22;68680;50.764;6.120;2023-09-12T14:56:37;25.00;82.60
79049;DHT22;68680;50.764;6.120;2023-09-12T14:59:04;25.20;82.40
79049;DHT22;68680;50.764;6.120;2023-09-12T15:01:31;25.20;81.80
79049;DHT22;68680;50.764;6.120;2023-09-12T15:03:57;25.20;82.00
79049;DHT22;68680;50.764;6.120;2023-09-12T15:06:23;25.10;80.90
79049;DHT22;68680;50.764;6.120;2023-09-12T15:08:49;25.10;82.40
79049;DHT22;68680;50.764;6.120;2023-09-12T15:11:15;25.00;81.80
79049;DHT22;68680;50.764;6.120;2023-09-12T15:13:41;25.00;82.20
79049;DHT22;68680;50.764;6.120;2023-09-12T15:16:06;25.00;83.20
79049;DHT22;68680;50.764;6.120;2023-09-12T15:18:33;24.90;82.40
79049;DHT22;68680;50.764;6.120;2023-09-12T15:20:59;24.80;83.10
79049;DHT22;68680;50.764;6.120;2023-09-12T15:23:25;24.70;82.90
79049;DHT22;68680;50.764;6.120;2023-09-12T15:25:51;24.70;82.20